sensor_id;sensor_type;location;lat;lon;timestamp;pressure;altitude;pressure_sealevel;temperature;humidity
32761;BME280;19126;47.472;7.850;2023-07-31T00:00:26;96829.63;;;13.13;90.14
32761;BME280;19126;47.472;7.850;2023-07-31T00:02:54;96825.72;;;13.09;89.11
32761;BME280;19126;47.472;7.850;2023-07-31T00:05:23;96830.34;;;13.07;88.36
32761;BME280;19126;47.472;7.850;2023-07-31T00:07:50;96840.09;;;13.06;87.72
32761;BME280;19126;47.472;7.850;2023-07-31T00:10:18;96834.56;;;13.01;87.99
32761;BME280;19126;47.472;7.850;2023-07-31T00:12:45;96828.66;;;12.99;87.89
32761;BME280;19126;47.472;7.850;2023-07-31T00:15:14;96825.19;;;12.98;87.92
32761;BME280;19126;47.472;7.850;2023-07-31T00:17:41;96821.13;;;12.96;87.65
32761;BME280;19126;47.472;7.850;2023-07-31T00:20:10;96820.50;;;12.94;87.90
32761;BME280;19126;47.472;7.850;2023-07-31T00:22:39;96811.31;;;12.89;87.57
32761;BME280;19126;47.472;7.850;2023-07-31T00:25:07;96812.31;;;12.88;87.01
32761;BME280;19126;47.472;7.850;2023-07-31T00:27:34;96820.22;;;12.88;86.00
32761;BME280;19126;47.472;7.850;2023-07-31T00:30:01;96819.22;;;12.89;84.91
32761;BME280;19126;47.472;7.850;2023-07-31T00:32:29;96815.31;;;12.85;84.43
32761;BME280;19126;47.472;7.850;2023-07-31T00:34:56;96817.94;;;12.85;83.39
32761;BME280;19126;47.472;7.850;2023-07-31T00:37:23;96813.03;;;12.82;83.10
32761;BME280;19126;47.472;7.850;2023-07-31T00:39:52;96820.31;;;12.80;83.03
32761;BME280;19126;47.472;7.850;2023-07-31T00:42:19;96818.06;;;12.77;83.29
32761;BME280;19126;47.472;7.850;2023-07-31T00:44:47;96808.25;;;12.71;83.70
32761;BME280;19126;47.472;7.850;2023-07-31T00:47:14;96810.25;;;12.69;83.23
32761;BME280;19126;47.472;7.850;2023-07-31T00:49:41;96810.59;;;12.66;83.45
32761;BME280;19126;47.472;7.850;2023-07-31T00:52:09;96812.59;;;12.64;83.32
32761;BME280;19126;47.472;7.850;2023-07-31T00:54:37;96807.69;;;12.60;83.43
32761;BME280;19126;47.472;7.850;2023-07-31T00:57:07;96810.69;;;12.57;83.35
32761;BME280;19126;47.472;7.850;2023-07-31T00:59:34;96806.59;;;12.55;83.15
32761;BME280;19126;47.472;7.850;2023-07-31T01:02:04;96805.16;;;12.52;82.84
32761;BME280;19126;47.472;7.850;2023-07-31T01:04:31;96806.31;;;12.50;82.54
32761;BME280;19126;47.472;7.850;2023-07-31T01:07:05;96800.41;;;12.48;82.07
32761;BME280;19126;47.472;7.850;2023-07-31T01:09:42;96800.63;;;12.46;82.67
32761;BME280;19126;47.472;7.850;2023-07-31T01:12:15;96808.88;;;12.43;81.92
32761;BME280;19126;47.472;7.850;2023-07-31T01:14:51;96809.41;;;12.38;80.96
32761;BME280;19126;47.472;7.850;2023-07-31T01:17:19;96801.88;;;12.35;81.76
32761;BME280;19126;47.472;7.850;2023-07-31T01:19:47;96795.53;;;12.29;81.47
32761;BME280;19126;47.472;7.850;2023-07-31T01:22:39;96795.06;;;12.26;81.86
32761;BME280;19126;47.472;7.850;2023-07-31T01:25:24;96790.34;;;12.21;81.93
32761;BME280;19126;47.472;7.850;2023-07-31T01:28:05;96794.31;;;12.17;81.51
32761;BME280;19126;47.472;7.850;2023-07-31T01:30:40;96776.78;;;12.09;81.10
32761;BME280;19126;47.472;7.850;2023-07-31T01:33:08;96775.50;;;12.05;80.18
32761;BME280;19126;47.472;7.850;2023-07-31T01:35:37;96768.78;;;12.02;79.10
32761;BME280;19126;47.472;7.850;2023-07-31T01:38:05;96776.06;;;12.00;78.27
32761;BME280;19126;47.472;7.850;2023-07-31T01:40:32;96771.75;;;11.99;77.86
32761;BME280;19126;47.472;7.850;2023-07-31T01:43:01;96765.03;;;11.97;77.45
32761;BME280;19126;47.472;7.850;2023-07-31T01:45:28;96765.38;;;11.94;77.23
32761;BME280;19126;47.472;7.850;2023-07-31T01:47:56;96763.91;;;11.91;76.91
32761;BME280;19126;47.472;7.850;2023-07-31T01:50:23;96764.25;;;11.88;76.64
32761;BME280;19126;47.472;7.850;2023-07-31T01:52:50;96767.09;;;11.86;76.15
32761;BME280;19126;47.472;7.850;2023-07-31T01:55:17;96758.56;;;11.84;75.61
32761;BME280;19126;47.472;7.850;2023-07-31T01:57:45;96766.63;;;11.83;75.88
32761;BME280;19126;47.472;7.850;2023-07-31T02:00:14;96762.72;;;11.79;75.67
32761;BME280;19126;47.472;7.850;2023-07-31T02:02:41;96756.00;;;11.76;75.77
32761;BME280;19126;47.472;7.850;2023-07-31T02:05:08;96758.00;;;11.74;76.28
32761;BME280;19126;47.472;7.850;2023-07-31T02:07:36;96752.25;;;11.70;76.13
32761;BME280;19126;47.472;7.850;2023-07-31T02:10:04;96761.78;;;11.71;76.35
32761;BME280;19126;47.472;7.850;2023-07-31T02:12:31;96755.72;;;11.71;76.35
32761;BME280;19126;47.472;7.850;2023-07-31T02:14:59;96749.81;;;11.69;76.38
32761;BME280;19126;47.472;7.850;2023-07-31T02:17:28;96745.72;;;11.66;76.27
32761;BME280;19126;47.472;7.850;2023-07-31T02:19:55;96751.53;;;11.62;75.50
32761;BME280;19126;47.472;7.850;2023-07-31T02:22:23;96742.16;;;11.59;75.08
32761;BME280;19126;47.472;7.850;2023-07-31T02:24:50;96736.88;;;11.59;74.92
32761;BME280;19126;47.472;7.850;2023-07-31T02:27:17;96737.88;;;11.58;74.43
32761;BME280;19126;47.472;7.850;2023-07-31T02:29:44;96731.34;;;11.54;73.48
32761;BME280;19126;47.472;7.850;2023-07-31T02:32:12;96730.91;;;11.50;74.14
32761;BME280;19126;47.472;7.850;2023-07-31T02:34:40;96724.34;;;11.46;73.10
32761;BME280;19126;47.472;7.850;2023-07-31T02:37:08;96740.28;;;11.44;72.99
32761;BME280;19126;47.472;7.850;2023-07-31T02:39:35;96730.78;;;11.43;72.77
32761;BME280;19126;47.472;7.850;2023-07-31T02:42:03;96726.06;;;11.39;72.33
32761;BME280;19126;47.472;7.850;2023-07-31T02:44:30;96719.69;;;11.33;71.97
32761;BME280;19126;47.472;7.850;2023-07-31T02:46:58;96721.03;;;11.29;72.33
32761;BME280;19126;47.472;7.850;2023-07-31T02:49:25;96722.84;;;11.28;71.60
32761;BME280;19126;47.472;7.850;2023-07-31T02:51:53;96717.75;;;11.27;70.65
32761;BME280;19126;47.472;7.850;2023-07-31T02:54:21;96716.94;;;11.26;70.21
32761;BME280;19126;47.472;7.850;2023-07-31T02:56:50;96717.94;;;11.25;69.15
32761;BME280;19126;47.472;7.850;2023-07-31T02:59:17;96721.56;;;11.24;69.36
32761;BME280;19126;47.472;7.850;2023-07-31T03:01:45;96723.34;;;11.24;69.00
32761;BME280;19126;47.472;7.850;2023-07-31T03:04:12;96721.91;;;11.21;68.53
32761;BME280;19126;47.472;7.850;2023-07-31T03:06:39;96726.97;;;11.23;67.62
32761;BME280;19126;47.472;7.850;2023-07-31T03:09:08;96727.19;;;11.21;67.90
32761;BME280;19126;47.472;7.850;2023-07-31T03:11:35;96729.63;;;11.23;67.25
32761;BME280;19126;47.472;7.850;2023-07-31T03:14:02;96738.34;;;11.23;67.25
32761;BME280;19126;47.472;7.850;2023-07-31T03:16:30;96741.97;;;11.22;66.39
32761;BME280;19126;47.472;7.850;2023-07-31T03:18:57;96736.69;;;11.22;66.10
32761;BME280;19126;47.472;7.850;2023-07-31T03:21:24;96733.25;;;11.22;65.55
32761;BME280;19126;47.472;7.850;2023-07-31T03:23:52;96737.69;;;11.21;64.75
32761;BME280;19126;47.472;7.850;2023-07-31T03:26:20;96743.94;;;11.20;64.32
32761;BME280;19126;47.472;7.850;2023-07-31T03:28:48;96735.22;;;11.20;64.70
32761;BME280;19126;47.472;7.850;2023-07-31T03:31:15;96743.94;;;11.20;63.70
32761;BME280;19126;47.472;7.850;2023-07-31T03:33:42;96747.72;;;11.18;63.10
32761;BME280;19126;47.472;7.850;2023-07-31T03:36:10;96747.38;;;11.21;62.76
32761;BME280;19126;47.472;7.850;2023-07-31T03:38:37;96755.25;;;11.21;63.33
32761;BME280;19126;47.472;7.850;2023-07-31T03:41:04;96756.25;;;11.20;63.26
32761;BME280;19126;47.472;7.850;2023-07-31T03:43:33;96744.75;;;11.21;62.69
32761;BME280;19126;47.472;7.850;2023-07-31T03:46:00;96746.56;;;11.20;62.64
32761;BME280;19126;47.472;7.850;2023-07-31T03:48:28;96752.00;;;11.19;62.51
32761;BME280;19126;47.472;7.850;2023-07-31T03:50:56;96750.34;;;11.18;61.73
32761;BME280;19126;47.472;7.850;2023-07-31T03:53:23;96752.63;;;11.21;61.28
32761;BME280;19126;47.472;7.850;2023-07-31T03:55:50;96756.09;;;11.21;60.52
32761;BME280;19126;47.472;7.850;2023-07-31T03:58:18;96756.09;;;11.21;60.94
32761;BME280;19126;47.472;7.850;2023-07-31T04:00:47;96751.66;;;11.22;60.28
32761;BME280;19126;47.472;7.850;2023-07-31T04:03:15;96753.63;;;11.20;59.23
32761;BME280;19126;47.472;7.850;2023-07-31T04:05:42;96757.72;;;11.22;58.47
32761;BME280;19126;47.472;7.850;2023-07-31T04:08:09;96756.91;;;11.22;57.84
32761;BME280;19126;47.472;7.850;2023-07-31T04:10:37;96754.28;;;11.22;57.03
32761;BME280;19126;47.472;7.850;2023-07-31T04:13:04;96752.63;;;11.21;56.94
32761;BME280;19126;47.472;7.850;2023-07-31T04:15:31;96756.09;;;11.21;56.37
32761;BME280;19126;47.472;7.850;2023-07-31T04:18:00;96748.22;;;11.21;56.50
32761;BME280;19126;47.472;7.850;2023-07-31T04:20:27;96750.00;;;11.21;56.41
32761;BME280;19126;47.472;7.850;2023-07-31T04:22:54;96749.84;;;11.22;56.98
32761;BME280;19126;47.472;7.850;2023-07-31T04:25:22;96756.09;;;11.21;56.46
32761;BME280;19126;47.472;7.850;2023-07-31T04:27:49;96757.38;;;11.25;56.22
32761;BME280;19126;47.472;7.850;2023-07-31T04:30:16;96755.56;;;11.26;56.44
32761;BME280;19126;47.472;7.850;2023-07-31T04:32:44;96758.03;;;11.27;55.99
32761;BME280;19126;47.472;7.850;2023-07-31T04:35:12;96751.47;;;11.23;55.21
32761;BME280;19126;47.472;7.850;2023-07-31T04:37:40;96752.94;;;11.26;54.96
32761;BME280;19126;47.472;7.850;2023-07-31T04:40:08;96749.50;;;11.25;54.87
32761;BME280;19126;47.472;7.850;2023-07-31T04:42:36;96751.13;;;11.26;53.93
32761;BME280;19126;47.472;7.850;2023-07-31T04:45:04;96747.81;;;11.33;52.98
32761;BME280;19126;47.472;7.850;2023-07-31T04:47:32;96744.97;;;11.34;52.57
32761;BME280;19126;47.472;7.850;2023-07-31T04:50:00;96747.75;;;11.41;51.89
32761;BME280;19126;47.472;7.850;2023-07-31T04:52:29;96745.56;;;11.44;51.12
32761;BME280;19126;47.472;7.850;2023-07-31T04:54:56;96742.41;;;11.49;50.45
32761;BME280;19126;47.472;7.850;2023-07-31T04:57:24;96744.97;;;11.57;50.21
32761;BME280;19126;47.472;7.850;2023-07-31T04:59:51;96741.00;;;11.62;48.86
32761;BME280;19126;47.472;7.850;2023-07-31T05:02:18;96746.19;;;11.70;48.17
32761;BME280;19126;47.472;7.850;2023-07-31T05:04:46;96742.19;;;11.74;46.94
32761;BME280;19126;47.472;7.850;2023-07-31T05:07:13;96748.56;;;11.80;46.77
32761;BME280;19126;47.472;7.850;2023-07-31T05:09:42;96739.94;;;11.86;46.19
32761;BME280;19126;47.472;7.850;2023-07-31T05:12:09;96750.75;;;11.91;45.40
32761;BME280;19126;47.472;7.850;2023-07-31T05:14:37;96748.59;;;11.95;45.03
32761;BME280;19126;47.472;7.850;2023-07-31T05:17:04;96749.72;;;12.00;44.84
32761;BME280;19126;47.472;7.850;2023-07-31T05:19:32;96752.63;;;12.06;44.56
32761;BME280;19126;47.472;7.850;2023-07-31T05:21:59;96764.88;;;12.13;45.29
32761;BME280;19126;47.472;7.850;2023-07-31T05:24:27;96758.91;;;12.20;45.61
32761;BME280;19126;47.472;7.850;2023-07-31T05:26:57;96764.72;;;12.30;45.64
32761;BME280;19126;47.472;7.850;2023-07-31T05:29:24;96745.91;;;12.33;49.03
32761;BME280;19126;47.472;7.850;2023-07-31T05:31:52;96758.72;;;12.36;51.27
32761;BME280;19126;47.472;7.850;2023-07-31T05:34:19;96755.72;;;12.39;52.94
32761;BME280;19126;47.472;7.850;2023-07-31T05:36:46;96764.91;;;12.43;54.18
32761;BME280;19126;47.472;7.850;2023-07-31T05:39:13;96763.00;;;12.52;55.65
32761;BME280;19126;47.472;7.850;2023-07-31T05:41:41;96754.16;;;12.60;59.24
32761;BME280;19126;47.472;7.850;2023-07-31T05:44:09;96755.16;;;12.59;63.16
32761;BME280;19126;47.472;7.850;2023-07-31T05:46:37;96764.53;;;12.62;66.21
32761;BME280;19126;47.472;7.850;2023-07-31T05:49:04;96757.25;;;12.64;68.26
32761;BME280;19126;47.472;7.850;2023-07-31T05:51:31;96753.31;;;12.74;69.39
32761;BME280;19126;47.472;7.850;2023-07-31T05:53:59;96748.31;;;12.80;73.67
32761;BME280;19126;47.472;7.850;2023-07-31T05:56:26;96744.03;;;12.79;76.63
32761;BME280;19126;47.472;7.850;2023-07-31T05:58:54;96733.84;;;12.90;78.17
32761;BME280;19126;47.472;7.850;2023-07-31T06:01:24;96744.19;;;12.92;80.86
32761;BME280;19126;47.472;7.850;2023-07-31T06:03:51;96736.63;;;13.04;83.02
32761;BME280;19126;47.472;7.850;2023-07-31T06:06:19;96741.19;;;13.17;85.27
32761;BME280;19126;47.472;7.850;2023-07-31T06:08:46;96739.94;;;13.13;87.38
32761;BME280;19126;47.472;7.850;2023-07-31T06:11:13;96744.28;;;13.21;88.61
32761;BME280;19126;47.472;7.850;2023-07-31T06:13:41;96733.38;;;13.24;90.45
32761;BME280;19126;47.472;7.850;2023-07-31T06:16:10;96730.59;;;13.32;94.47
32761;BME280;19126;47.472;7.850;2023-07-31T06:18:39;96727.69;;;13.42;96.36
32761;BME280;19126;47.472;7.850;2023-07-31T06:21:06;96734.97;;;13.61;96.85
32761;BME280;19126;47.472;7.850;2023-07-31T06:23:34;96735.41;;;13.94;97.57
32761;BME280;19126;47.472;7.850;2023-07-31T06:26:01;96737.59;;;14.18;99.79
32761;BME280;19126;47.472;7.850;2023-07-31T06:28:28;96740.94;;;14.41;100.00
32761;BME280;19126;47.472;7.850;2023-07-31T06:30:56;96734.72;;;14.55;100.00
32761;BME280;19126;47.472;7.850;2023-07-31T06:33:23;96744.81;;;14.73;100.00
32761;BME280;19126;47.472;7.850;2023-07-31T06:35:52;96739.16;;;14.83;100.00
32761;BME280;19126;47.472;7.850;2023-07-31T06:38:24;96732.06;;;14.90;100.00
32761;BME280;19126;47.472;7.850;2023-07-31T06:40:52;96723.16;;;15.05;100.00
32761;BME280;19126;47.472;7.850;2023-07-31T06:43:19;96717.66;;;15.20;100.00
32761;BME280;19126;47.472;7.850;2023-07-31T06:45:47;96715.25;;;15.38;100.00
32761;BME280;19126;47.472;7.850;2023-07-31T06:48:16;96705.88;;;15.43;100.00
32761;BME280;19126;47.472;7.850;2023-07-31T06:50:43;96698.75;;;15.50;100.00
32761;BME280;19126;47.472;7.850;2023-07-31T06:53:12;96701.81;;;15.67;100.00
32761;BME280;19126;47.472;7.850;2023-07-31T06:55:39;96714.63;;;15.77;100.00
32761;BME280;19126;47.472;7.850;2023-07-31T06:58:07;96702.00;;;15.86;100.00
32761;BME280;19126;47.472;7.850;2023-07-31T07:00:34;96707.13;;;16.01;100.00
32761;BME280;19126;47.472;7.850;2023-07-31T07:03:01;96702.41;;;16.09;100.00
32761;BME280;19126;47.472;7.850;2023-07-31T07:05:29;96700.75;;;16.22;100.00
32761;BME280;19126;47.472;7.850;2023-07-31T07:07:56;96700.69;;;16.42;100.00
32761;BME280;19126;47.472;7.850;2023-07-31T07:10:25;96713.66;;;16.64;100.00
32761;BME280;19126;47.472;7.850;2023-07-31T07:12:53;96702.88;;;17.04;100.00
32761;BME280;19126;47.472;7.850;2023-07-31T07:15:21;96708.31;;;17.48;100.00
32761;BME280;19126;47.472;7.850;2023-07-31T07:17:49;96707.59;;;17.85;100.00
32761;BME280;19126;47.472;7.850;2023-07-31T07:20:16;96708.97;;;18.13;100.00
32761;BME280;19126;47.472;7.850;2023-07-31T07:22:45;96710.31;;;18.41;98.41
32761;BME280;19126;47.472;7.850;2023-07-31T07:25:12;96718.59;;;18.70;98.68
32761;BME280;19126;47.472;7.850;2023-07-31T07:27:41;96718.88;;;18.80;90.66
32761;BME280;19126;47.472;7.850;2023-07-31T07:30:10;96726.88;;;19.11;92.57
32761;BME280;19126;47.472;7.850;2023-07-31T07:32:37;96723.94;;;19.31;90.82
32761;BME280;19126;47.472;7.850;2023-07-31T07:35:06;96725.38;;;19.45;85.58
32761;BME280;19126;47.472;7.850;2023-07-31T07:37:33;96717.53;;;19.86;88.30
32761;BME280;19126;47.472;7.850;2023-07-31T07:40:01;96723.72;;;20.23;80.71
32761;BME280;19126;47.472;7.850;2023-07-31T07:42:28;96722.75;;;20.53;78.14
32761;BME280;19126;47.472;7.850;2023-07-31T07:44:57;96715.84;;;21.10;80.07
32761;BME280;19126;47.472;7.850;2023-07-31T07:47:25;96718.09;;;21.30;74.32
32761;BME280;19126;47.472;7.850;2023-07-31T07:49:52;96713.31;;;21.32;71.52
32761;BME280;19126;47.472;7.850;2023-07-31T07:52:19;96705.72;;;21.12;69.92
32761;BME280;19126;47.472;7.850;2023-07-31T07:54:47;96698.41;;;20.90;73.16
32761;BME280;19126;47.472;7.850;2023-07-31T07:57:14;96707.84;;;20.81;71.22
32761;BME280;19126;47.472;7.850;2023-07-31T07:59:41;96697.41;;;20.67;71.46
32761;BME280;19126;47.472;7.850;2023-07-31T08:02:10;96700.78;;;20.62;73.39
32761;BME280;19126;47.472;7.850;2023-07-31T08:04:38;96689.41;;;20.67;68.60
32761;BME280;19126;47.472;7.850;2023-07-31T08:07:05;96695.53;;;20.79;75.06
32761;BME280;19126;47.472;7.850;2023-07-31T08:09:32;96699.44;;;20.77;68.83
32761;BME280;19126;47.472;7.850;2023-07-31T08:11:59;96692.97;;;20.73;70.56
32761;BME280;19126;47.472;7.850;2023-07-31T08:14:29;96687.69;;;20.61;70.06
32761;BME280;19126;47.472;7.850;2023-07-31T08:16:56;96695.34;;;20.57;70.26
32761;BME280;19126;47.472;7.850;2023-07-31T08:19:25;96694.19;;;20.53;68.27
32761;BME280;19126;47.472;7.850;2023-07-31T08:21:52;96701.66;;;20.39;69.22
32761;BME280;19126;47.472;7.850;2023-07-31T08:24:19;96692.72;;;20.45;71.07
32761;BME280;19126;47.472;7.850;2023-07-31T08:26:47;96689.41;;;20.55;73.73
32761;BME280;19126;47.472;7.850;2023-07-31T08:29:15;96691.69;;;20.75;71.17
32761;BME280;19126;47.472;7.850;2023-07-31T08:31:42;96671.31;;;20.98;69.77
32761;BME280;19126;47.472;7.850;2023-07-31T08:34:10;96675.31;;;21.13;71.33
32761;BME280;19126;47.472;7.850;2023-07-31T08:36:38;96661.88;;;21.42;69.59
32761;BME280;19126;47.472;7.850;2023-07-31T08:39:06;96663.34;;;21.49;67.73
32761;BME280;19126;47.472;7.850;2023-07-31T08:41:37;96667.16;;;21.36;65.45
32761;BME280;19126;47.472;7.850;2023-07-31T08:44:06;96662.47;;;21.27;64.98
32761;BME280;19126;47.472;7.850;2023-07-31T08:46:34;96663.88;;;21.00;65.42
32761;BME280;19126;47.472;7.850;2023-07-31T08:49:05;96662.69;;;20.79;68.95
32761;BME280;19126;47.472;7.850;2023-07-31T08:51:34;96671.38;;;20.74;66.56
32761;BME280;19126;47.472;7.850;2023-07-31T08:54:03;96662.22;;;20.70;68.86
32761;BME280;19126;47.472;7.850;2023-07-31T08:56:32;96667.06;;;20.85;70.17
32761;BME280;19126;47.472;7.850;2023-07-31T08:59:02;96672.22;;;21.67;70.87
32761;BME280;19126;47.472;7.850;2023-07-31T09:01:30;96679.81;;;22.37;64.75
32761;BME280;19126;47.472;7.850;2023-07-31T09:04:01;96682.59;;;22.64;66.28
32761;BME280;19126;47.472;7.850;2023-07-31T09:06:31;96681.91;;;22.52;61.66
32761;BME280;19126;47.472;7.850;2023-07-31T09:08:59;96680.03;;;22.52;65.32
32761;BME280;19126;47.472;7.850;2023-07-31T09:11:27;96676.94;;;22.61;62.83
32761;BME280;19126;47.472;7.850;2023-07-31T09:13:57;96664.63;;;22.20;61.22
32761;BME280;19126;47.472;7.850;2023-07-31T09:16:28;96672.66;;;21.98;59.28
32761;BME280;19126;47.472;7.850;2023-07-31T09:18:58;96666.59;;;21.86;63.20
32761;BME280;19126;47.472;7.850;2023-07-31T09:21:27;96668.00;;;22.10;62.61
32761;BME280;19126;47.472;7.850;2023-07-31T09:23:55;96669.13;;;22.15;64.69
32761;BME280;19126;47.472;7.850;2023-07-31T09:26:35;96670.81;;;22.21;64.71
32761;BME280;19126;47.472;7.850;2023-07-31T09:29:06;96663.16;;;22.30;66.54
32761;BME280;19126;47.472;7.850;2023-07-31T09:31:40;96675.47;;;22.31;63.67
32761;BME280;19126;47.472;7.850;2023-07-31T09:34:07;96668.13;;;22.43;64.52
32761;BME280;19126;47.472;7.850;2023-07-31T09:36:41;96665.94;;;22.40;61.89
32761;BME280;19126;47.472;7.850;2023-07-31T09:39:10;96661.84;;;22.32;64.30
32761;BME280;19126;47.472;7.850;2023-07-31T09:41:41;96654.13;;;22.36;64.72
32761;BME280;19126;47.472;7.850;2023-07-31T09:44:09;96654.75;;;22.88;67.92
32761;BME280;19126;47.472;7.850;2023-07-31T09:46:37;96642.41;;;23.19;62.90
32761;BME280;19126;47.472;7.850;2023-07-31T09:49:08;96629.44;;;23.33;58.33
32761;BME280;19126;47.472;7.850;2023-07-31T09:51:37;96636.94;;;23.31;60.91
32761;BME280;19126;47.472;7.850;2023-07-31T09:54:15;96626.34;;;23.19;58.06
32761;BME280;19126;47.472;7.850;2023-07-31T09:56:46;96626.66;;;23.23;62.33
32761;BME280;19126;47.472;7.850;2023-07-31T09:59:15;96613.72;;;23.15;59.91
32761;BME280;19126;47.472;7.850;2023-07-31T10:01:44;96617.22;;;23.48;58.35
32761;BME280;19126;47.472;7.850;2023-07-31T10:04:13;96608.69;;;23.56;56.80
32761;BME280;19126;47.472;7.850;2023-07-31T10:06:43;96610.06;;;23.64;61.38
32761;BME280;19126;47.472;7.850;2023-07-31T10:09:13;96607.38;;;23.64;60.55
32761;BME280;19126;47.472;7.850;2023-07-31T10:11:48;96597.22;;;23.66;58.72
32761;BME280;19126;47.472;7.850;2023-07-31T10:14:19;96602.78;;;23.54;58.90
32761;BME280;19126;47.472;7.850;2023-07-31T10:16:47;96590.44;;;23.53;58.76
32761;BME280;19126;47.472;7.850;2023-07-31T10:19:15;96586.66;;;23.92;58.70
32761;BME280;19126;47.472;7.850;2023-07-31T10:21:43;96578.28;;;24.47;56.87
32761;BME280;19126;47.472;7.850;2023-07-31T10:24:10;96585.06;;;24.80;55.59
32761;BME280;19126;47.472;7.850;2023-07-31T10:26:40;96582.94;;;25.13;56.06
32761;BME280;19126;47.472;7.850;2023-07-31T10:29:09;96585.38;;;25.10;53.42
32761;BME280;19126;47.472;7.850;2023-07-31T10:31:38;96586.69;;;25.02;52.82
32761;BME280;19126;47.472;7.850;2023-07-31T10:34:06;96582.13;;;25.08;53.99
32761;BME280;19126;47.472;7.850;2023-07-31T10:36:34;96577.28;;;25.46;57.67
32761;BME280;19126;47.472;7.850;2023-07-31T10:39:04;96577.72;;;25.89;56.09
32761;BME280;19126;47.472;7.850;2023-07-31T10:41:47;96576.81;;;26.25;51.67
32761;BME280;19126;47.472;7.850;2023-07-31T10:44:17;96567.94;;;26.19;49.73
32761;BME280;19126;47.472;7.850;2023-07-31T10:46:46;96562.31;;;26.11;49.45
32761;BME280;19126;47.472;7.850;2023-07-31T10:49:21;96563.06;;;25.45;49.90
32761;BME280;19126;47.472;7.850;2023-07-31T10:51:48;96555.25;;;25.18;52.18
32761;BME280;19126;47.472;7.850;2023-07-31T10:54:16;96543.44;;;25.19;49.92
32761;BME280;19126;47.472;7.850;2023-07-31T10:56:45;96543.69;;;25.38;52.14
32761;BME280;19126;47.472;7.850;2023-07-31T10:59:14;96540.69;;;25.55;51.00
32761;BME280;19126;47.472;7.850;2023-07-31T11:01:53;96544.22;;;25.45;49.88
32761;BME280;19126;47.472;7.850;2023-07-31T11:04:23;96549.81;;;25.65;53.63
32761;BME280;19126;47.472;7.850;2023-07-31T11:06:58;96541.69;;;25.80;51.55
32761;BME280;19126;47.472;7.850;2023-07-31T11:09:28;96531.59;;;26.22;53.79
32761;BME280;19126;47.472;7.850;2023-07-31T11:11:58;96531.44;;;25.87;49.92
32761;BME280;19126;47.472;7.850;2023-07-31T11:14:27;96528.53;;;25.79;50.33
32761;BME280;19126;47.472;7.850;2023-07-31T11:16:54;96525.56;;;25.80;52.81
32761;BME280;19126;47.472;7.850;2023-07-31T11:19:22;96513.69;;;25.86;54.12
32761;BME280;19126;47.472;7.850;2023-07-31T11:21:51;96523.69;;;25.81;53.37
32761;BME280;19126;47.472;7.850;2023-07-31T11:24:18;96515.94;;;25.64;53.19
32761;BME280;19126;47.472;7.850;2023-07-31T11:26:50;96510.88;;;25.47;49.15
32761;BME280;19126;47.472;7.850;2023-07-31T11:29:18;96506.31;;;25.31;53.95
32761;BME280;19126;47.472;7.850;2023-07-31T11:31:47;96496.41;;;25.22;52.99
32761;BME280;19126;47.472;7.850;2023-07-31T11:34:15;96495.03;;;25.24;55.56
32761;BME280;19126;47.472;7.850;2023-07-31T11:36:53;96493.41;;;25.28;50.92
32761;BME280;19126;47.472;7.850;2023-07-31T11:39:21;96494.72;;;25.52;55.00
32761;BME280;19126;47.472;7.850;2023-07-31T11:41:49;96496.91;;;25.50;54.94
32761;BME280;19126;47.472;7.850;2023-07-31T11:44:16;96502.00;;;25.46;55.42
32761;BME280;19126;47.472;7.850;2023-07-31T11:46:43;96495.53;;;25.37;53.49
32761;BME280;19126;47.472;7.850;2023-07-31T11:49:12;96494.47;;;25.38;54.86
32761;BME280;19126;47.472;7.850;2023-07-31T11:51:40;96491.50;;;25.39;52.94
32761;BME280;19126;47.472;7.850;2023-07-31T11:54:07;96473.28;;;25.26;52.81
32761;BME280;19126;47.472;7.850;2023-07-31T11:56:35;96467.31;;;25.39;54.24
32761;BME280;19126;47.472;7.850;2023-07-31T11:59:02;96459.91;;;25.81;57.63
32761;BME280;19126;47.472;7.850;2023-07-31T12:01:31;96455.50;;;25.96;53.79
32761;BME280;19126;47.472;7.850;2023-07-31T12:03:59;96455.34;;;25.82;50.01
32761;BME280;19126;47.472;7.850;2023-07-31T12:06:34;96448.84;;;25.88;54.56
32761;BME280;19126;47.472;7.850;2023-07-31T12:09:03;96456.84;;;26.03;57.53
32761;BME280;19126;47.472;7.850;2023-07-31T12:11:31;96457.25;;;26.26;54.55
32761;BME280;19126;47.472;7.850;2023-07-31T12:13:58;96457.66;;;26.44;56.66
32761;BME280;19126;47.472;7.850;2023-07-31T12:16:27;96458.47;;;26.79;54.69
32761;BME280;19126;47.472;7.850;2023-07-31T12:18:55;96446.22;;;26.97;54.96
32761;BME280;19126;47.472;7.850;2023-07-31T12:21:22;96448.75;;;27.13;49.69
32761;BME280;19126;47.472;7.850;2023-07-31T12:23:51;96439.09;;;27.06;50.06
32761;BME280;19126;47.472;7.850;2023-07-31T12:26:20;96427.00;;;27.28;50.79
32761;BME280;19126;47.472;7.850;2023-07-31T12:28:50;96430.63;;;27.86;56.18
32761;BME280;19126;47.472;7.850;2023-07-31T12:31:21;96430.72;;;28.39;50.54
32761;BME280;19126;47.472;7.850;2023-07-31T12:33:51;96419.69;;;28.35;45.98
32761;BME280;19126;47.472;7.850;2023-07-31T12:36:21;96411.16;;;28.28;51.82
32761;BME280;19126;47.472;7.850;2023-07-31T12:38:51;96419.16;;;28.19;50.29
32761;BME280;19126;47.472;7.850;2023-07-31T12:41:19;96411.94;;;28.09;51.94
32761;BME280;19126;47.472;7.850;2023-07-31T12:43:46;96405.59;;;27.81;50.08
32761;BME280;19126;47.472;7.850;2023-07-31T12:46:13;96399.91;;;27.63;50.89
32761;BME280;19126;47.472;7.850;2023-07-31T12:48:41;96400.38;;;27.46;51.63
32761;BME280;19126;47.472;7.850;2023-07-31T12:51:09;96395.97;;;27.55;52.05
32761;BME280;19126;47.472;7.850;2023-07-31T12:53:36;96397.56;;;27.56;52.10
32761;BME280;19126;47.472;7.850;2023-07-31T12:56:05;96393.72;;;27.82;53.01
32761;BME280;19126;47.472;7.850;2023-07-31T12:58:32;96397.88;;;28.12;53.01
32761;BME280;19126;47.472;7.850;2023-07-31T13:01:00;96382.56;;;27.88;49.55
32761;BME280;19126;47.472;7.850;2023-07-31T13:03:27;96385.78;;;27.90;51.43
32761;BME280;19126;47.472;7.850;2023-07-31T13:05:55;96376.50;;;27.77;52.52